Terminal Aerodrome Forecast
Issued by NWS Amarillo, TX

Home | Current Version | Previous Version | Text Only | Print | Product List | Glossary On
Versions: 1 2 3 4 5 6 7 8 9 10 11 12 13 14 15 16 17 18 19 20 21 22 23 24 25 26 27 28 29
000
FTUS44 KAMA 181200 AAA
TAFAMA
TAF AMD
KAMA 181214Z 1812/1912 25005KT P6SM SCT005 SCT015
     FM181600 25016KT P6SM SCT070
     FM190100 34010KT P6SM BKN070=

USA.gov is the U.S. government's official web portal to all federal, state and local government web resources and services.